ROMMA est une association bénévole à but non lucratif. Votre soutien est indispensable : ADHERER à ROMMA ou FAIRE un DON

Chamrousse - (38, Isère)

Massif de Belledonne (1800 m)   Longitude: 05° 52' 28" E   Latitude: 45° 06' 28" N Station partenaire n°3
 

Détail journalier du     <<     >>

Température Precipitation Humidité Pression Vent Dir Rafale Dir. rafale
Heure (°C) (mm) (%) (hPa) (km/h) (km/h)
01:00 6.807410107ESE13SE
02:00 6.407910105ESE18E
03:00 7.1071100810E18E
04:00 7.007310081E10E
05:00 6.8074100811ESE18SE
06:00 7.3064100819E39E
07:00 7.6059100918ESE35E
08:00 6.607210096SE24ENE
09:00 6.307910097SSE21SE
10:00 7.1070100911ESE32SE
11:00 7.3066100915SE34ESE
12:00 7.4064101019ESE37ESE
13:00 8.1063101015ESE39ESE
14:00 7.8067101016SE34ESE
15:00 9.2063100816SE35ESE
16:00 6.9080100914SSO34SSO
17:00 8.1069100913S34S
18:00 7.4074100917ESE35SSE
19:00 7.4071100820ESE42E
20:00 7.3071100915SE34SE
21:00 6.8074101020ESE35SE
22:00 6.8075100921SE42SE
23:00 6.8074101015SE32ESE
minuit 6.3078101015SE27SE

Graphique du 15-05-2008

 

Serveur OMMA